Time;durP1;ratioP1;P1;durP2;ratioP2;P2;SDS_P1;SDS_P2;PMS_P1;PMS_P2;Temp;Humidity;BMP_temperature;BMP_pressure;BME280_temperature;BME280_humidity;BME280_pressure;Samples;Min_cycle;Max_cycle;Signal;HPM_P1;HPM_P2
2021/07/29 00:00:12;;;;;;;4.88;2.75;;;22.40;67.30;;;;;;10437266;28;20029;-50
2021/07/29 00:05:13;;;;;;;4.03;2.72;;;22.40;67.40;;;;;;10456310;28;20073;-49
2021/07/29 00:10:14;;;;;;;4.45;2.72;;;22.40;67.20;;;;;;10455866;28;20119;-53
2021/07/29 00:15:16;;;;;;;5.13;3.50;;;22.40;67.10;;;;;;10438163;28;20041;-51
2021/07/29 00:20:22;;;;;;;3.80;2.70;;;22.40;67.10;;;;;;10463045;28;20012;-53
2021/07/29 00:25:24;;;;;;;3.30;2.20;;;22.40;67.10;;;;;;10455626;28;20040;-52
2021/07/29 00:30:26;;;;;;;2.95;2.38;;;22.40;67.00;;;;;;10455939;28;20040;-49
2021/07/29 00:35:29;;;;;;;3.92;2.47;;;22.40;67.10;;;;;;10455297;28;20029;-50
2021/07/29 00:40:30;;;;;;;4.25;2.83;;;22.40;67.00;;;;;;10455857;28;20373;-50
2021/07/29 00:45:31;;;;;;;3.03;2.50;;;22.40;67.00;;;;;;10455078;28;20092;-50
2021/07/29 00:50:32;;;;;;;4.22;2.53;;;22.40;67.00;;;;;;10451859;28;20037;-50
2021/07/29 00:55:33;;;;;;;3.67;2.30;;;22.40;67.00;;;;;;10463503;28;20044;-51
2021/07/29 01:00:34;;;;;;;4.05;2.83;;;22.40;67.10;;;;;;10461999;28;20458;-49
2021/07/29 01:05:34;;;;;;;3.33;2.72;;;22.30;67.00;;;;;;10463473;28;20035;-50
2021/07/29 01:10:35;;;;;;;3.90;2.58;;;22.30;66.90;;;;;;10462921;28;20119;-49
2021/07/29 01:15:36;;;;;;;3.08;2.15;;;22.40;66.80;;;;;;10462808;28;20078;-48
2021/07/29 01:20:36;;;;;;;3.00;2.13;;;22.30;66.80;;;;;;10470258;28;20585;-51
2021/07/29 01:25:37;;;;;;;4.22;2.25;;;22.30;66.70;;;;;;10462413;28;20072;-50
2021/07/29 01:30:38;;;;;;;4.38;3.13;;;22.30;67.20;;;;;;10462481;28;20064;-50
2021/07/29 01:35:38;;;;;;;4.00;2.53;;;22.30;66.60;;;;;;10461570;28;20545;-50
2021/07/29 01:40:39;;;;;;;5.80;2.40;;;22.30;66.60;;;;;;10444186;28;20021;-52
2021/07/29 01:45:40;;;;;;;3.50;2.60;;;22.30;66.80;;;;;;10461623;28;20131;-50
2021/07/29 01:50:43;;;;;;;4.55;2.58;;;22.30;66.50;;;;;;10461546;28;20037;-50
2021/07/29 01:55:47;;;;;;;3.33;2.38;;;22.30;67.20;;;;;;10443508;28;20029;-48
2021/07/29 02:00:51;;;;;;;3.60;2.05;;;22.30;66.80;;;;;;10459405;28;20036;-50
2021/07/29 02:05:52;;;;;;;5.20;2.67;;;22.30;67.20;;;;;;10443325;28;20124;-49
2021/07/29 02:10:52;;;;;;;6.03;2.50;;;22.30;66.50;;;;;;10460597;28;20029;-48
2021/07/29 02:15:53;;;;;;;3.03;2.25;;;22.30;66.60;;;;;;10460585;28;20088;-50
2021/07/29 02:20:54;;;;;;;3.20;2.05;;;22.20;66.40;;;;;;10467373;28;20086;-49
2021/07/29 02:25:54;;;;;;;4.65;2.80;;;22.20;66.40;;;;;;10460189;28;20073;-48
2021/07/29 02:30:55;;;;;;;3.35;2.10;;;22.20;66.40;;;;;;10460159;28;20056;-49
2021/07/29 02:35:58;;;;;;;3.60;2.22;;;22.20;66.50;;;;;;10459791;28;20036;-52
2021/07/29 02:40:58;;;;;;;4.15;2.38;;;22.20;66.40;;;;;;10459861;28;20029;-49
2021/07/29 02:46:02;;;;;;;3.88;2.17;;;22.20;66.60;;;;;;10459062;28;20432;-50
2021/07/29 02:51:03;;;;;;;3.30;2.00;;;22.20;66.40;;;;;;10459331;28;20037;-49
2021/07/29 02:56:05;;;;;;;5.03;2.45;;;22.20;66.30;;;;;;10459262;28;20033;-50
2021/07/29 03:01:06;;;;;;;4.18;2.40;;;22.20;66.20;;;;;;10457730;28;20028;-49
2021/07/29 03:06:06;;;;;;;4.82;2.42;;;22.20;66.20;;;;;;10458486;28;20068;-51
2021/07/29 03:11:09;;;;;;;5.05;2.25;;;22.20;66.30;;;;;;10458169;28;20541;-51
2021/07/29 03:16:10;;;;;;;4.75;2.25;;;22.20;66.40;;;;;;10424093;28;20037;-52
2021/07/29 03:21:11;;;;;;;3.85;2.30;;;22.20;66.30;;;;;;10465654;28;20104;-48
2021/07/29 03:26:12;;;;;;;3.58;1.98;;;22.10;66.30;;;;;;10458035;28;20474;-50
2021/07/29 03:31:12;;;;;;;5.00;2.63;;;22.20;66.30;;;;;;10457614;28;20037;-49
2021/07/29 03:36:13;;;;;;;3.45;2.22;;;22.10;66.40;;;;;;10457271;28;20442;-49
2021/07/29 03:41:14;;;;;;;5.65;2.05;;;22.10;66.40;;;;;;10457448;28;20056;-52
2021/07/29 03:46:14;;;;;;;4.20;2.83;;;22.10;66.40;;;;;;10454077;28;20148;-49
2021/07/29 03:51:15;;;;;;;4.85;2.38;;;22.10;66.50;;;;;;10457277;28;20060;-52
2021/07/29 03:56:16;;;;;;;3.95;1.90;;;22.10;66.50;;;;;;10456856;28;20118;-53
2021/07/29 04:01:18;;;;;;;4.82;2.50;;;22.10;66.60;;;;;;10455189;28;20381;-48
2021/07/29 04:06:18;;;;;;;2.55;1.83;;;22.10;66.70;;;;;;10456255;28;20064;-53
2021/07/29 04:11:19;;;;;;;5.28;1.90;;;22.10;66.70;;;;;;10454835;28;20116;-50
2021/07/29 04:16:20;;;;;;;4.32;2.40;;;22.10;66.60;;;;;;10454582;28;20041;-52
2021/07/29 04:21:20;;;;;;;4.10;2.20;;;22.10;66.60;;;;;;10457077;28;20029;-49
2021/07/29 04:26:21;;;;;;;6.35;2.47;;;22.10;66.60;;;;;;10452959;28;20064;-52
2021/07/29 04:31:22;;;;;;;4.72;2.75;;;22.10;66.50;;;;;;10448371;28;20056;-52
2021/07/29 04:36:22;;;;;;;5.43;2.50;;;22.10;66.50;;;;;;10450690;28;20057;-52
2021/07/29 04:41:23;;;;;;;4.65;1.95;;;22.00;66.70;;;;;;10454797;28;20495;-50
2021/07/29 04:46:23;;;;;;;5.72;2.70;;;22.10;66.60;;;;;;10454856;28;20064;-51
2021/07/29 04:51:24;;;;;;;9.63;2.83;;;22.10;66.50;;;;;;10448020;28;20067;-49
2021/07/29 04:56:25;;;;;;;8.13;2.35;;;22.10;68.50;;;;;;10451293;28;20463;-50
2021/07/29 05:01:26;;;;;;;10.48;2.72;;;22.10;68.90;;;;;;10453499;28;20029;-47
2021/07/29 05:06:27;;;;;;;6.60;3.15;;;22.20;69.50;;;;;;10453830;28;20392;-48
2021/07/29 05:11:27;;;;;;;6.50;2.60;;;22.20;69.20;;;;;;10454137;28;20063;-48
2021/07/29 05:16:28;;;;;;;5.82;2.95;;;22.20;69.60;;;;;;10467621;28;20519;-48
2021/07/29 05:21:29;;;;;;;5.82;2.63;;;22.20;69.20;;;;;;10435478;28;20121;-47
2021/07/29 05:26:30;;;;;;;6.65;2.53;;;22.20;69.50;;;;;;10454629;28;20137;-52
2021/07/29 05:31:31;;;;;;;9.57;4.03;;;22.20;69.00;;;;;;10454677;28;20033;-53
2021/07/29 05:36:31;;;;;;;16.15;3.30;;;22.20;69.10;;;;;;10458510;28;20063;-54
2021/07/29 05:41:32;;;;;;;7.93;2.58;;;22.20;69.20;;;;;;10461559;28;20078;-51
2021/07/29 05:46:33;;;;;;;11.23;2.97;;;22.20;69.00;;;;;;10461587;28;20056;-49
2021/07/29 05:51:33;;;;;;;11.80;2.88;;;22.20;69.00;;;;;;10461848;28;20449;-51
2021/07/29 05:56:34;;;;;;;8.73;3.17;;;22.20;69.10;;;;;;10461179;28;20116;-56
2021/07/29 06:01:35;;;;;;;6.25;3.22;;;22.20;68.90;;;;;;10443596;28;20123;-52
2021/07/29 06:06:35;;;;;;;6.97;3.22;;;22.20;68.70;;;;;;10457866;28;20061;-53
2021/07/29 06:11:36;;;;;;;8.63;2.88;;;22.20;68.60;;;;;;10459633;28;20487;-53
2021/07/29 06:16:37;;;;;;;15.18;3.53;;;22.20;68.60;;;;;;10458871;28;20113;-55
2021/07/29 06:21:37;;;;;;;9.57;3.30;;;22.10;68.70;;;;;;10464634;28;20029;-53
2021/07/29 06:26:38;;;;;;;6.47;2.75;;;22.10;68.50;;;;;;10437170;28;20128;-52
2021/07/29 06:31:39;;;;;;;7.78;3.15;;;22.10;68.40;;;;;;10456577;28;20029;-54
2021/07/29 06:36:40;;;;;;;4.75;2.58;;;22.10;68.30;;;;;;10457539;28;20117;-53
2021/07/29 06:41:41;;;;;;;6.03;2.70;;;22.10;68.10;;;;;;10458190;28;20111;-53
2021/07/29 06:46:41;;;;;;;9.70;2.88;;;22.10;68.10;;;;;;10458459;28;20127;-53
2021/07/29 06:51:42;;;;;;;9.57;3.53;;;22.10;68.00;;;;;;10459563;28;20033;-54
2021/07/29 06:56:43;;;;;;;8.98;3.20;;;22.10;68.10;;;;;;10459531;28;20061;-54
2021/07/29 07:01:43;;;;;;;8.02;3.00;;;22.10;68.10;;;;;;10428005;28;20028;-50
2021/07/29 07:06:44;;;;;;;9.13;3.10;;;22.10;67.90;;;;;;10411160;28;20055;-53
2021/07/29 07:11:45;;;;;;;5.90;2.97;;;22.10;67.90;;;;;;10451582;28;20112;-51
2021/07/29 07:16:45;;;;;;;8.23;3.05;;;22.10;67.90;;;;;;10438248;28;20033;-49
2021/07/29 07:21:46;;;;;;;5.70;2.90;;;22.10;67.90;;;;;;10428378;28;20059;-53
2021/07/29 07:26:47;;;;;;;4.72;2.67;;;22.00;67.80;;;;;;10451035;28;20134;-51
2021/07/29 07:31:47;;;;;;;5.18;2.80;;;22.10;67.80;;;;;;10437455;28;20150;-49
2021/07/29 07:36:48;;;;;;;8.75;3.00;;;22.00;67.30;;;;;;10452987;28;20492;-53
2021/07/29 07:41:49;;;;;;;4.95;2.70;;;22.10;67.60;;;;;;10450582;28;20533;-50
2021/07/29 07:46:49;;;;;;;5.28;3.00;;;22.10;67.50;;;;;;10450023;28;20137;-50
2021/07/29 07:51:50;;;;;;;5.22;2.60;;;22.10;67.20;;;;;;10450140;28;20111;-52
2021/07/29 07:56:51;;;;;;;6.15;3.03;;;22.00;66.80;;;;;;10448656;28;20033;-53
2021/07/29 08:01:51;;;;;;;6.80;3.03;;;22.10;66.80;;;;;;10448559;28;20111;-51
2021/07/29 08:06:52;;;;;;;4.20;2.58;;;22.00;67.00;;;;;;10442285;28;20091;-52
2021/07/29 08:11:53;;;;;;;5.95;3.13;;;22.00;66.90;;;;;;10447285;28;20816;-53
2021/07/29 08:16:53;;;;;;;6.30;3.03;;;22.10;66.80;;;;;;10449387;28;20036;-50
2021/07/29 08:21:54;;;;;;;7.47;2.63;;;22.10;66.70;;;;;;10455238;28;20056;-52
2021/07/29 08:26:57;;;;;;;6.28;3.13;;;22.10;66.70;;;;;;10449313;28;20378;-48
2021/07/29 08:32:00;;;;;;;5.07;3.53;;;22.10;66.40;;;;;;10448357;28;20538;-52
2021/07/29 08:37:01;;;;;;;5.28;3.17;;;22.10;66.30;;;;;;10448839;28;20055;-48
2021/07/29 08:42:02;;;;;;;6.75;3.10;;;22.10;66.40;;;;;;10447612;28;20044;-52
2021/07/29 08:47:11;;;;;;;6.97;2.90;;;22.10;66.30;;;;;;10418880;28;20154;-49
2021/07/29 08:52:12;;;;;;;5.50;2.67;;;22.10;66.20;;;;;;10430584;28;20484;-49
2021/07/29 08:57:14;;;;;;;5.85;2.88;;;22.10;66.00;;;;;;10443391;28;20033;-52
2021/07/29 09:02:28;;;;;;;8.20;2.78;;;22.10;65.90;;;;;;10447601;28;20039;-52
2021/07/29 09:07:29;;;;;;;4.97;2.78;;;22.10;66.00;;;;;;10430868;28;20392;-53
2021/07/29 09:12:30;;;;;;;4.75;3.60;;;22.10;65.80;;;;;;10451064;28;20104;-52
2021/07/29 09:17:44;;;;;;;6.30;3.50;;;22.10;65.80;;;;;;10455599;28;20040;-51
2021/07/29 09:22:47;;;;;;;6.57;3.28;;;22.10;65.40;;;;;;10456023;28;20376;-49
2021/07/29 09:27:50;;;;;;;4.75;2.60;;;22.10;65.30;;;;;;10438621;28;20044;-52
2021/07/29 09:33:06;;;;;;;5.38;3.30;;;22.20;65.40;;;;;;10455664;28;20113;-53
2021/07/29 09:38:23;;;;;;;6.22;3.03;;;22.10;65.20;;;;;;10455210;28;20033;-51
2021/07/29 09:43:30;;;;;;;6.63;2.80;;;22.10;65.30;;;;;;10435923;28;20103;-51
2021/07/29 09:48:32;;;;;;;4.82;3.05;;;22.10;65.00;;;;;;10454852;28;20032;-49
2021/07/29 09:53:34;;;;;;;5.43;3.13;;;22.10;65.10;;;;;;10437111;28;20380;-49
2021/07/29 09:58:36;;;;;;;6.75;3.08;;;22.10;65.30;;;;;;10454398;28;20122;-48
2021/07/29 10:03:45;;;;;;;5.47;3.10;;;22.10;65.30;;;;;;10451881;28;20094;-52
2021/07/29 10:08:58;;;;;;;6.35;2.97;;;22.10;65.30;;;;;;10436657;28;20496;-48
2021/07/29 10:13:59;;;;;;;5.70;3.10;;;22.10;65.30;;;;;;10453856;28;20108;-49
2021/07/29 10:19:00;;;;;;;4.38;2.83;;;22.00;65.10;;;;;;10441270;28;20074;-49
2021/07/29 10:24:02;;;;;;;5.90;3.13;;;22.00;65.10;;;;;;10458689;28;20081;-52
2021/07/29 10:29:18;;;;;;;6.78;3.45;;;22.10;65.20;;;;;;10453420;28;20060;-51
2021/07/29 10:34:33;;;;;;;8.10;3.30;;;22.10;65.40;;;;;;10453231;28;20035;-51
2021/07/29 10:39:57;;;;;;;3.05;2.67;;;22.00;65.50;;;;;;10453451;28;20029;-52
2021/07/29 10:44:58;;;;;;;4.97;2.65;;;22.10;65.60;;;;;;10452551;28;20052;-49
2021/07/29 10:50:02;;;;;;;5.90;3.10;;;22.00;65.40;;;;;;10452892;28;20033;-49
2021/07/29 10:55:03;;;;;;;6.35;3.13;;;22.00;65.60;;;;;;10452785;28;20036;-49
2021/07/29 11:00:04;;;;;;;6.93;3.72;;;22.00;65.80;;;;;;10446970;28;20035;-52
2021/07/29 11:05:08;;;;;;;6.78;3.53;;;22.00;66.20;;;;;;10451087;28;20048;-50
2021/07/29 11:10:12;;;;;;;4.45;2.53;;;22.00;66.20;;;;;;10450852;28;20063;-54
2021/07/29 11:15:14;;;;;;;5.90;3.13;;;22.10;66.20;;;;;;10450667;28;20127;-51
2021/07/29 11:20:26;;;;;;;5.68;3.13;;;22.10;66.20;;;;;;10457660;28;20040;-52
2021/07/29 11:25:27;;;;;;;5.40;3.17;;;22.10;66.20;;;;;;10450349;28;20473;-49
2021/07/29 11:30:41;;;;;;;6.10;3.17;;;22.10;66.30;;;;;;10450863;28;20032;-50
2021/07/29 11:35:42;;;;;;;5.30;3.28;;;22.10;66.30;;;;;;10450497;28;20064;-51
2021/07/29 11:40:43;;;;;;;6.32;2.80;;;22.00;66.30;;;;;;10462368;28;20033;-49
2021/07/29 11:45:43;;;;;;;5.85;2.92;;;22.10;66.40;;;;;;10450379;28;20053;-51
2021/07/29 11:50:44;;;;;;;6.55;3.08;;;22.10;66.50;;;;;;10449630;28;20045;-50
2021/07/29 11:55:55;;;;;;;6.32;2.90;;;22.10;66.40;;;;;;10448993;28;20167;-49
2021/07/29 12:00:56;;;;;;;5.90;2.85;;;22.20;67.10;;;;;;10448660;28;20616;-50
2021/07/29 12:05:59;;;;;;;5.95;2.85;;;22.20;66.30;;;;;;10438627;28;20037;-50
2021/07/29 12:11:00;;;;;;;4.32;3.45;;;22.20;66.30;;;;;;10430768;28;20435;-49
2021/07/29 12:16:01;;;;;;;4.20;2.58;;;22.30;66.40;;;;;;10431343;28;20115;-49
2021/07/29 12:21:03;;;;;;;4.32;2.72;;;22.30;66.30;;;;;;10439022;28;20426;-48
2021/07/29 12:26:14;;;;;;;3.03;2.10;;;22.30;66.20;;;;;;10431409;28;20087;-49
2021/07/29 12:31:23;;;;;;;3.65;2.67;;;22.30;66.10;;;;;;10449690;28;20075;-48
2021/07/29 12:36:41;;;;;;;5.30;3.00;;;22.30;66.20;;;;;;10430183;28;20087;-50
2021/07/29 12:41:46;;;;;;;3.85;2.38;;;22.20;66.20;;;;;;10432122;28;20044;-51
2021/07/29 12:46:48;;;;;;;7.47;3.20;;;22.20;66.20;;;;;;10447859;28;20049;-48
2021/07/29 12:51:51;;;;;;;5.00;2.40;;;22.20;66.40;;;;;;10448485;28;20051;-49
2021/07/29 12:57:07;;;;;;;7.18;2.80;;;22.20;66.40;;;;;;10432942;28;20140;-48
2021/07/29 13:02:08;;;;;;;4.50;2.42;;;22.20;66.60;;;;;;10446648;28;20582;-49
2021/07/29 13:07:09;;;;;;;3.38;2.30;;;22.30;66.60;;;;;;10442737;28;20068;-48
2021/07/29 13:12:09;;;;;;;3.75;2.63;;;22.30;66.50;;;;;;10448180;28;20527;-49
2021/07/29 13:17:10;;;;;;;4.88;2.97;;;22.30;66.50;;;;;;10454164;28;20110;-49
2021/07/29 13:22:11;;;;;;;6.15;3.10;;;22.30;66.50;;;;;;10461289;28;20028;-48
2021/07/29 13:27:11;;;;;;;5.00;3.33;;;22.30;66.40;;;;;;10453292;28;20457;-49
2021/07/29 13:32:12;;;;;;;4.88;2.72;;;22.30;66.40;;;;;;10454328;28;20107;-48
2021/07/29 13:37:13;;;;;;;5.15;2.63;;;22.40;66.40;;;;;;10454207;28;20497;-48
2021/07/29 13:42:14;;;;;;;6.03;3.25;;;22.40;66.30;;;;;;10454059;28;20514;-48
2021/07/29 13:47:15;;;;;;;4.78;2.92;;;22.40;66.20;;;;;;10453941;28;20371;-49
2021/07/29 13:52:15;;;;;;;5.18;2.53;;;22.40;66.20;;;;;;10453923;28;20059;-48
2021/07/29 13:57:16;;;;;;;4.20;2.80;;;22.40;66.30;;;;;;10456748;28;20104;-49
2021/07/29 14:02:16;;;;;;;4.07;3.05;;;22.40;66.30;;;;;;10459776;28;20521;-48
2021/07/29 14:07:17;;;;;;;5.05;2.70;;;22.40;66.30;;;;;;10461365;28;20067;-49
2021/07/29 14:12:19;;;;;;;5.65;2.65;;;22.40;66.20;;;;;;10460838;28;20113;-51
2021/07/29 14:27:43;;;;;;;8.80;3.42;;;22.40;66.10;;;;;;10460323;28;20409;-52
2021/07/29 14:32:44;;;;;;;4.70;3.03;;;22.40;66.10;;;;;;10459496;28;20037;-50
2021/07/29 14:37:45;;;;;;;3.67;2.65;;;22.30;66.10;;;;;;10459151;28;20041;-49
2021/07/29 14:42:45;;;;;;;6.22;3.30;;;22.30;66.10;;;;;;10458886;28;20029;-51
2021/07/29 14:53:07;;;;;;;;;;;22.30;66.10;;;;;;10451421;28;20044;-50
2021/07/29 15:19:52;;;;;;;5.30;2.80;;;22.30;66.00;;;;;;10459027;28;20444;-48
2021/07/29 16:07:28;;;;;;;9.48;3.70;;;22.20;65.40;;;;;;10437473;28;20032;-46
2021/07/29 16:12:28;;;;;;;18.00;14.73;;;22.20;65.00;;;;;;10456326;28;20032;-49
2021/07/29 16:17:34;;;;;;;13.70;12.27;;;22.20;69.10;;;;;;10455337;28;20037;-47
2021/07/29 16:22:35;;;;;;;7.75;5.95;;;22.30;70.20;;;;;;10460721;28;20147;-53
2021/07/29 16:27:40;;;;;;;10.38;7.53;;;22.20;66.00;;;;;;10454894;28;20162;-52
2021/07/29 16:32:40;;;;;;;8.40;4.32;;;22.20;65.40;;;;;;10455679;28;20397;-49
2021/07/29 16:37:41;;;;;;;10.23;4.30;;;22.20;64.00;;;;;;10455358;28;20072;-48
2021/07/29 16:42:42;;;;;;;12.80;6.05;;;22.20;63.90;;;;;;10437868;28;20457;-46
2021/07/29 16:47:42;;;;;;;12.85;3.88;;;22.30;62.80;;;;;;10455923;28;20508;-46
2021/07/29 16:52:43;;;;;;;10.05;4.70;;;22.30;61.90;;;;;;10455319;28;20079;-48
2021/07/29 16:57:44;;;;;;;11.65;3.67;;;22.30;61.90;;;;;;10455060;28;20051;-52
2021/07/29 17:02:44;;;;;;;8.82;3.83;;;22.30;60.60;;;;;;10454985;28;20388;-54
2021/07/29 17:07:45;;;;;;;11.45;4.32;;;22.20;60.90;;;;;;10454160;28;20037;-46
2021/07/29 17:12:46;;;;;;;8.88;3.78;;;22.20;60.50;;;;;;10454534;28;20111;-46
2021/07/29 17:17:48;;;;;;;9.23;3.78;;;22.20;60.30;;;;;;10450207;28;20072;-51
2021/07/29 17:22:49;;;;;;;12.07;4.05;;;22.20;60.70;;;;;;10455664;28;20365;-49
2021/07/29 17:27:50;;;;;;;8.25;3.42;;;22.20;59.90;;;;;;10454332;28;20033;-47
2021/07/29 17:32:51;;;;;;;7.57;3.92;;;22.20;60.60;;;;;;10451330;28;20037;-47
2021/07/29 17:37:52;;;;;;;10.90;4.13;;;22.20;60.30;;;;;;10457470;28;20037;-50
2021/07/29 17:42:53;;;;;;;11.52;3.47;;;22.10;60.50;;;;;;10446972;28;20033;-46
2021/07/29 17:47:54;;;;;;;5.47;3.17;;;22.10;60.60;;;;;;10450659;28;20043;-49
2021/07/29 17:52:55;;;;;;;8.30;3.92;;;22.10;61.00;;;;;;10451735;28;20021;-46
2021/07/29 17:57:55;;;;;;;13.38;3.80;;;22.20;61.20;;;;;;10432443;28;20036;-48
2021/07/29 18:02:56;;;;;;;9.70;3.35;;;22.20;61.40;;;;;;10455620;28;20108;-46
2021/07/29 18:07:57;;;;;;;8.15;3.03;;;22.20;61.60;;;;;;10453721;28;20362;-52
2021/07/29 18:12:57;;;;;;;13.38;3.55;;;22.20;61.80;;;;;;10457335;28;20072;-48
2021/07/29 18:18:00;;;;;;;5.80;3.30;;;22.20;61.90;;;;;;10457119;28;20027;-47
2021/07/29 18:23:00;;;;;;;4.70;2.90;;;22.20;62.00;;;;;;10448313;28;20111;-47
2021/07/29 18:28:01;;;;;;;5.25;3.00;;;22.20;62.20;;;;;;10458893;28;20092;-50
2021/07/29 18:33:05;;;;;;;9.52;3.53;;;22.20;62.40;;;;;;10457618;28;20059;-46
2021/07/29 18:38:06;;;;;;;9.88;4.05;;;22.20;62.50;;;;;;10457271;28;20098;-49
2021/07/29 18:43:07;;;;;;;6.90;3.72;;;22.20;62.50;;;;;;10455327;28;20059;-47
2021/07/29 18:48:08;;;;;;;7.22;3.50;;;22.20;63.60;;;;;;10456562;28;20035;-48
2021/07/29 18:53:08;;;;;;;7.30;3.63;;;22.20;63.10;;;;;;10458500;28;20029;-48
2021/07/29 18:58:09;;;;;;;12.85;3.60;;;22.20;63.60;;;;;;10457890;28;20148;-50
2021/07/29 19:03:10;;;;;;;10.13;4.05;;;22.20;63.60;;;;;;10455946;28;20032;-47
2021/07/29 19:08:11;;;;;;;8.32;3.97;;;22.20;63.00;;;;;;10457340;28;20108;-49
2021/07/29 19:13:12;;;;;;;9.95;4.03;;;22.20;63.00;;;;;;10424731;28;20029;-47
2021/07/29 19:18:13;;;;;;;9.85;3.80;;;22.20;63.30;;;;;;10458255;28;20116;-52
2021/07/29 19:23:13;;;;;;;7.82;4.50;;;22.20;63.30;;;;;;10464422;28;20116;-51
2021/07/29 19:28:14;;;;;;;6.43;3.42;;;22.20;63.20;;;;;;10423803;28;20036;-50
2021/07/29 19:33:15;;;;;;;5.65;3.03;;;22.20;63.00;;;;;;10457502;28;20462;-50
2021/07/29 19:38:16;;;;;;;4.28;3.55;;;22.20;63.20;;;;;;10438831;28;20064;-52
2021/07/29 19:43:16;;;;;;;6.25;3.83;;;22.20;63.50;;;;;;10456292;28;20033;-53
2021/07/29 19:48:17;;;;;;;7.07;4.20;;;22.20;63.50;;;;;;10439005;28;20548;-49
2021/07/29 19:53:18;;;;;;;7.80;3.50;;;22.10;63.60;;;;;;10435637;28;20385;-47
2021/07/29 19:58:19;;;;;;;7.60;4.03;;;22.10;63.40;;;;;;10437970;28;20496;-48
2021/07/29 20:03:19;;;;;;;5.95;3.55;;;22.10;63.50;;;;;;10455977;28;20025;-52
2021/07/29 20:08:20;;;;;;;5.32;3.05;;;22.10;63.40;;;;;;10455933;28;20504;-51
2021/07/29 20:13:22;;;;;;;6.72;3.20;;;22.10;63.60;;;;;;10455354;28;20061;-50
2021/07/29 20:18:22;;;;;;;7.40;3.63;;;22.10;63.60;;;;;;10455076;28;20090;-47
2021/07/29 20:23:23;;;;;;;5.30;3.35;;;22.10;63.70;;;;;;10443885;28;20073;-47
2021/07/29 20:28:24;;;;;;;7.65;3.75;;;22.10;63.60;;;;;;10442740;28;20072;-48
2021/07/29 20:33:25;;;;;;;8.60;4.35;;;22.10;63.60;;;;;;10455968;28;20079;-48
2021/07/29 20:38:25;;;;;;;6.07;4.15;;;22.10;63.60;;;;;;10455407;28;20116;-49
2021/07/29 20:43:29;;;;;;;5.20;3.60;;;22.10;63.60;;;;;;10455562;28;20071;-47
2021/07/29 20:48:29;;;;;;;5.80;3.70;;;22.10;63.60;;;;;;10455454;28;20029;-47
2021/07/29 20:53:30;;;;;;;6.85;3.78;;;22.10;63.60;;;;;;10455447;28;20482;-47
2021/07/29 20:58:31;;;;;;;4.97;3.58;;;22.10;63.60;;;;;;10455135;28;20061;-48
2021/07/29 21:03:32;;;;;;;7.75;3.60;;;22.10;63.70;;;;;;10454514;28;20033;-47
2021/07/29 21:08:33;;;;;;;4.60;3.30;;;22.10;63.70;;;;;;10449940;28;20486;-49
2021/07/29 21:13:34;;;;;;;4.30;3.15;;;22.00;63.60;;;;;;10463694;28;20036;-47
2021/07/29 21:18:34;;;;;;;5.25;3.88;;;22.00;63.70;;;;;;10445775;28;20401;-49
2021/07/29 21:23:35;;;;;;;4.65;3.22;;;22.00;63.70;;;;;;10469603;28;20519;-49
2021/07/29 21:28:36;;;;;;;5.28;3.45;;;22.10;63.70;;;;;;10463295;28;20106;-47
2021/07/29 21:33:37;;;;;;;6.32;3.20;;;22.00;63.60;;;;;;10462501;28;20040;-48
2021/07/29 21:38:38;;;;;;;6.13;3.80;;;22.00;63.70;;;;;;10462313;28;20033;-47
2021/07/29 21:43:38;;;;;;;5.57;3.50;;;22.00;63.70;;;;;;10462055;28;20049;-50
2021/07/29 21:48:39;;;;;;;6.95;3.75;;;22.00;63.70;;;;;;10462149;28;20112;-50
2021/07/29 21:53:40;;;;;;;7.10;3.78;;;22.00;63.70;;;;;;10462185;28;20524;-47
2021/07/29 21:58:40;;;;;;;6.22;3.30;;;22.00;63.70;;;;;;10443859;28;20116;-49
2021/07/29 22:03:41;;;;;;;7.45;4.00;;;22.00;63.70;;;;;;10461332;28;20036;-48
2021/07/29 22:08:42;;;;;;;5.13;3.42;;;22.00;63.80;;;;;;10461451;28;20445;-47
2021/07/29 22:13:43;;;;;;;6.03;3.72;;;22.00;63.70;;;;;;10461058;28;20064;-47
2021/07/29 22:18:43;;;;;;;6.55;3.67;;;22.00;63.80;;;;;;10459681;28;20037;-46
2021/07/29 22:23:44;;;;;;;7.43;4.22;;;22.00;63.70;;;;;;10467868;28;20065;-48
2021/07/29 22:28:45;;;;;;;7.55;3.78;;;22.00;63.80;;;;;;10460422;28;20082;-47
2021/07/29 22:33:45;;;;;;;7.10;4.40;;;22.00;63.80;;;;;;10441840;28;20430;-47
2021/07/29 22:38:47;;;;;;;5.80;3.83;;;21.90;63.70;;;;;;10459830;28;20681;-49
2021/07/29 22:43:47;;;;;;;5.47;3.58;;;22.00;63.80;;;;;;10448521;28;20052;-48
2021/07/29 22:48:48;;;;;;;6.88;4.25;;;21.90;63.70;;;;;;10459254;28;20041;-47
2021/07/29 22:53:48;;;;;;;7.72;3.92;;;22.00;63.80;;;;;;10459086;28;20110;-50
2021/07/29 22:58:49;;;;;;;6.75;3.95;;;21.90;63.80;;;;;;10458976;28;20068;-49
2021/07/29 23:03:50;;;;;;;5.45;3.90;;;21.90;63.80;;;;;;10428828;28;20027;-48
2021/07/29 23:08:51;;;;;;;7.65;4.50;;;21.90;63.80;;;;;;10458794;28;20060;-47
2021/07/29 23:13:51;;;;;;;9.15;4.22;;;21.90;63.80;;;;;;10458258;28;20036;-51
2021/07/29 23:18:53;;;;;;;5.13;3.90;;;21.90;63.80;;;;;;10458446;28;20033;-49
2021/07/29 23:29:00;;;;;;;5.70;3.90;;;21.90;63.70;;;;;;10457949;28;20504;-48
2021/07/29 23:34:01;;;;;;;6.88;3.80;;;21.90;63.80;;;;;;10457695;28;20115;-48
2021/07/29 23:39:04;;;;;;;6.20;4.10;;;21.90;63.70;;;;;;10457720;28;20057;-49
2021/07/29 23:44:05;;;;;;;6.13;4.20;;;21.80;63.70;;;;;;10456494;28;20099;-47
2021/07/29 23:49:06;;;;;;;7.20;4.00;;;21.90;63.70;;;;;;10457265;28;20060;-48
2021/07/29 23:54:06;;;;;;;9.30;4.38;;;21.80;63.60;;;;;;10456532;28;20110;-48
2021/07/29 23:59:07;;;;;;;6.78;4.45;;;21.80;63.60;;;;;;10436033;28;20132;-50
